sensor_id;sensor_type;location;lat;lon;timestamp;pressure;altitude;pressure_sealevel;temperature;humidity
78890;BME280;68279;48.964;14.502;2024-02-23T00:01:28;94893.59;;;7.21;90.19
78890;BME280;68279;48.964;14.502;2024-02-23T00:03:54;94899.84;;;7.16;90.04
78890;BME280;68279;48.964;14.502;2024-02-23T00:06:22;94901.41;;;7.17;89.60
78890;BME280;68279;48.964;14.502;2024-02-23T00:08:55;94888.88;;;7.09;90.30
78890;BME280;68279;48.964;14.502;2024-02-23T00:11:21;94877.16;;;7.01;92.42
78890;BME280;68279;48.964;14.502;2024-02-23T00:13:47;94879.31;;;6.91;93.81
78890;BME280;68279;48.964;14.502;2024-02-23T00:16:12;94871.97;;;6.96;92.68
78890;BME280;68279;48.964;14.502;2024-02-23T00:18:38;94853.38;;;7.05;92.63
78890;BME280;68279;48.964;14.502;2024-02-23T00:21:04;94853.88;;;7.16;91.82
78890;BME280;68279;48.964;14.502;2024-02-23T00:23:29;94846.53;;;7.21;89.90
78890;BME280;68279;48.964;14.502;2024-02-23T00:25:55;94838.09;;;7.28;89.01
78890;BME280;68279;48.964;14.502;2024-02-23T00:28:21;94839.19;;;7.35;88.78
78890;BME280;68279;48.964;14.502;2024-02-23T00:30:46;94847.00;;;7.41;88.93
78890;BME280;68279;48.964;14.502;2024-02-23T00:33:12;94844.97;;;7.46;87.43
78890;BME280;68279;48.964;14.502;2024-02-23T00:35:37;94841.69;;;7.49;87.52
78890;BME280;68279;48.964;14.502;2024-02-23T00:38:03;94827.00;;;7.43;86.61
78890;BME280;68279;48.964;14.502;2024-02-23T00:40:29;94819.78;;;7.44;86.82
78890;BME280;68279;48.964;14.502;2024-02-23T00:42:54;94823.03;;;7.58;86.31
78890;BME280;68279;48.964;14.502;2024-02-23T00:45:20;94820.69;;;7.65;84.58
78890;BME280;68279;48.964;14.502;2024-02-23T00:47:46;94830.88;;;7.72;83.67
78890;BME280;68279;48.964;14.502;2024-02-23T00:50:13;94826.78;;;7.83;82.33
78890;BME280;68279;48.964;14.502;2024-02-23T00:52:38;94823.97;;;7.79;81.81
78890;BME280;68279;48.964;14.502;2024-02-23T00:55:04;94834.94;;;7.86;81.13
78890;BME280;68279;48.964;14.502;2024-02-23T00:57:30;94834.44;;;7.84;81.31
78890;BME280;68279;48.964;14.502;2024-02-23T00:59:56;94843.38;;;7.88;80.71
78890;BME280;68279;48.964;14.502;2024-02-23T01:02:22;94848.38;;;7.81;80.79
78890;BME280;68279;48.964;14.502;2024-02-23T01:04:47;94856.16;;;8.04;80.10
78890;BME280;68279;48.964;14.502;2024-02-23T01:07:13;94861.81;;;7.93;80.14
78890;BME280;68279;48.964;14.502;2024-02-23T01:09:39;94871.69;;;7.93;80.44
78890;BME280;68279;48.964;14.502;2024-02-23T01:12:04;94865.75;;;7.87;80.56
78890;BME280;68279;48.964;14.502;2024-02-23T01:14:30;94878.13;;;7.75;81.73
78890;BME280;68279;48.964;14.502;2024-02-23T01:16:56;94884.53;;;7.65;82.46
78890;BME280;68279;48.964;14.502;2024-02-23T01:19:21;94886.09;;;7.66;83.02
78890;BME280;68279;48.964;14.502;2024-02-23T01:21:47;94896.59;;;7.71;82.65
78890;BME280;68279;48.964;14.502;2024-02-23T01:24:14;94901.28;;;7.65;83.52
78890;BME280;68279;48.964;14.502;2024-02-23T01:26:40;94911.94;;;7.74;82.81
78890;BME280;68279;48.964;14.502;2024-02-23T01:29:06;94925.09;;;7.62;84.15
78890;BME280;68279;48.964;14.502;2024-02-23T01:31:32;94928.19;;;7.55;84.46
78890;BME280;68279;48.964;14.502;2024-02-23T01:33:57;94921.31;;;7.46;84.89
78890;BME280;68279;48.964;14.502;2024-02-23T01:36:23;94923.31;;;7.40;84.96
78890;BME280;68279;48.964;14.502;2024-02-23T01:38:49;94916.13;;;7.32;85.38
78890;BME280;68279;48.964;14.502;2024-02-23T01:41:14;94926.47;;;7.25;86.39
78890;BME280;68279;48.964;14.502;2024-02-23T01:43:40;94924.56;;;7.25;86.34
78890;BME280;68279;48.964;14.502;2024-02-23T01:46:05;94929.91;;;7.25;85.99
78890;BME280;68279;48.964;14.502;2024-02-23T01:48:33;94942.09;;;7.35;85.79
78890;BME280;68279;48.964;14.502;2024-02-23T01:50:58;94957.09;;;7.31;86.85
78890;BME280;68279;48.964;14.502;2024-02-23T01:53:24;94965.88;;;7.40;86.45
78890;BME280;68279;48.964;14.502;2024-02-23T01:55:51;94986.09;;;7.67;84.18
78890;BME280;68279;48.964;14.502;2024-02-23T01:58:17;94999.72;;;7.74;84.00
78890;BME280;68279;48.964;14.502;2024-02-23T02:00:43;95011.75;;;7.54;85.61
78890;BME280;68279;48.964;14.502;2024-02-23T02:03:08;95010.34;;;7.57;85.75
78890;BME280;68279;48.964;14.502;2024-02-23T02:05:36;95024.59;;;7.52;86.89
78890;BME280;68279;48.964;14.502;2024-02-23T02:08:03;95025.00;;;7.37;88.38
78890;BME280;68279;48.964;14.502;2024-02-23T02:10:29;95033.41;;;7.22;90.25
78890;BME280;68279;48.964;14.502;2024-02-23T02:12:55;95039.34;;;7.19;91.74
78890;BME280;68279;48.964;14.502;2024-02-23T02:15:20;95035.28;;;7.21;91.80
78890;BME280;68279;48.964;14.502;2024-02-23T02:17:48;95043.31;;;7.38;92.16
78890;BME280;68279;48.964;14.502;2024-02-23T02:20:13;95041.25;;;8.10;89.02
78890;BME280;68279;48.964;14.502;2024-02-23T02:22:39;95053.19;;;8.47;87.35
78890;BME280;68279;48.964;14.502;2024-02-23T02:25:06;95053.03;;;8.52;86.97
78890;BME280;68279;48.964;14.502;2024-02-23T02:27:32;95047.72;;;8.43;87.65
78890;BME280;68279;48.964;14.502;2024-02-23T02:29:58;95052.41;;;8.55;86.83
78890;BME280;68279;48.964;14.502;2024-02-23T02:32:23;95051.13;;;8.70;86.38
78890;BME280;68279;48.964;14.502;2024-02-23T02:34:49;95052.06;;;8.74;85.80
78890;BME280;68279;48.964;14.502;2024-02-23T02:37:14;95056.00;;;8.68;86.08
78890;BME280;68279;48.964;14.502;2024-02-23T02:39:40;95049.69;;;8.72;85.12
78890;BME280;68279;48.964;14.502;2024-02-23T02:42:06;95053.66;;;8.66;85.28
78890;BME280;68279;48.964;14.502;2024-02-23T02:44:32;95053.34;;;8.59;85.23
78890;BME280;68279;48.964;14.502;2024-02-23T02:46:57;95046.28;;;8.63;85.18
78890;BME280;68279;48.964;14.502;2024-02-23T02:49:23;95059.47;;;8.51;85.99
78890;BME280;68279;48.964;14.502;2024-02-23T02:51:49;95054.91;;;8.60;85.31
78890;BME280;68279;48.964;14.502;2024-02-23T02:54:15;95059.00;;;8.49;85.89
78890;BME280;68279;48.964;14.502;2024-02-23T02:56:44;95066.50;;;8.38;86.51
78890;BME280;68279;48.964;14.502;2024-02-23T02:59:12;95077.91;;;8.30;86.59
78890;BME280;68279;48.964;14.502;2024-02-23T03:01:38;95078.41;;;8.32;86.49
78890;BME280;68279;48.964;14.502;2024-02-23T03:04:03;95079.78;;;8.21;86.75
78890;BME280;68279;48.964;14.502;2024-02-23T03:06:29;95092.81;;;8.22;86.98
78890;BME280;68279;48.964;14.502;2024-02-23T03:08:54;95099.69;;;8.06;87.82
78890;BME280;68279;48.964;14.502;2024-02-23T03:11:20;95099.47;;;7.85;88.61
78890;BME280;68279;48.964;14.502;2024-02-23T03:13:46;95097.81;;;7.58;89.96
78890;BME280;68279;48.964;14.502;2024-02-23T03:16:18;95094.84;;;7.51;91.41
78890;BME280;68279;48.964;14.502;2024-02-23T03:18:44;95100.59;;;7.45;91.03
78890;BME280;68279;48.964;14.502;2024-02-23T03:21:10;95099.59;;;7.32;91.52
78890;BME280;68279;48.964;14.502;2024-02-23T03:23:36;95113.59;;;7.15;92.99
78890;BME280;68279;48.964;14.502;2024-02-23T03:26:01;95112.47;;;7.07;92.99
78890;BME280;68279;48.964;14.502;2024-02-23T03:28:27;95110.41;;;7.04;94.42
78890;BME280;68279;48.964;14.502;2024-02-23T03:30:53;95114.47;;;7.02;95.63
78890;BME280;68279;48.964;14.502;2024-02-23T03:33:18;95116.66;;;7.00;96.42
78890;BME280;68279;48.964;14.502;2024-02-23T03:35:44;95114.00;;;7.00;96.70
78890;BME280;68279;48.964;14.502;2024-02-23T03:38:09;95119.31;;;7.00;96.71
78890;BME280;68279;48.964;14.502;2024-02-23T03:40:35;95114.78;;;7.00;97.09
78890;BME280;68279;48.964;14.502;2024-02-23T03:43:01;95121.19;;;6.99;97.45
78890;BME280;68279;48.964;14.502;2024-02-23T03:45:28;95128.84;;;7.01;97.47
78890;BME280;68279;48.964;14.502;2024-02-23T03:47:53;95131.81;;;6.99;98.17
78890;BME280;68279;48.964;14.502;2024-02-23T03:50:21;95128.69;;;7.06;98.06
78890;BME280;68279;48.964;14.502;2024-02-23T03:52:46;95142.66;;;7.12;97.55
78890;BME280;68279;48.964;14.502;2024-02-23T03:55:12;95140.41;;;7.27;96.33
78890;BME280;68279;48.964;14.502;2024-02-23T03:57:37;95141.63;;;7.21;96.29
78890;BME280;68279;48.964;14.502;2024-02-23T04:00:03;95142.41;;;7.22;96.11
78890;BME280;68279;48.964;14.502;2024-02-23T04:02:29;95150.91;;;7.32;94.72
78890;BME280;68279;48.964;14.502;2024-02-23T04:04:55;95153.91;;;7.39;93.70
78890;BME280;68279;48.964;14.502;2024-02-23T04:07:20;95158.75;;;7.37;93.73
78890;BME280;68279;48.964;14.502;2024-02-23T04:09:46;95161.00;;;7.44;93.09
78890;BME280;68279;48.964;14.502;2024-02-23T04:12:20;95156.09;;;7.69;90.31
78890;BME280;68279;48.964;14.502;2024-02-23T04:14:46;95160.38;;;7.47;91.65
78890;BME280;68279;48.964;14.502;2024-02-23T04:17:11;95170.34;;;7.42;91.73
78890;BME280;68279;48.964;14.502;2024-02-23T04:19:37;95174.09;;;7.41;91.49
78890;BME280;68279;48.964;14.502;2024-02-23T04:22:04;95176.47;;;7.42;91.55
78890;BME280;68279;48.964;14.502;2024-02-23T04:24:29;95180.03;;;7.37;92.02
78890;BME280;68279;48.964;14.502;2024-02-23T04:26:55;95176.91;;;7.35;92.19
78890;BME280;68279;48.964;14.502;2024-02-23T04:29:20;95188.69;;;7.43;91.44
78890;BME280;68279;48.964;14.502;2024-02-23T04:31:46;95182.56;;;7.43;91.11
78890;BME280;68279;48.964;14.502;2024-02-23T04:34:12;95188.78;;;7.38;91.75
78890;BME280;68279;48.964;14.502;2024-02-23T04:36:37;95193.94;;;7.34;91.50
78890;BME280;68279;48.964;14.502;2024-02-23T04:39:03;95189.50;;;7.52;88.42
78890;BME280;68279;48.964;14.502;2024-02-23T04:41:29;95191.66;;;7.81;85.53
78890;BME280;68279;48.964;14.502;2024-02-23T04:43:55;95191.78;;;7.76;84.91
78890;BME280;68279;48.964;14.502;2024-02-23T04:46:25;95196.69;;;7.83;82.89
78890;BME280;68279;48.964;14.502;2024-02-23T04:48:51;95201.06;;;7.79;82.92
78890;BME280;68279;48.964;14.502;2024-02-23T04:51:17;95205.91;;;7.85;82.15
78890;BME280;68279;48.964;14.502;2024-02-23T04:53:42;95213.75;;;7.82;82.11
78890;BME280;68279;48.964;14.502;2024-02-23T04:56:08;95216.25;;;7.78;81.80
78890;BME280;68279;48.964;14.502;2024-02-23T04:58:34;95213.25;;;7.80;81.19
78890;BME280;68279;48.964;14.502;2024-02-23T05:01:00;95220.31;;;7.84;80.68
78890;BME280;68279;48.964;14.502;2024-02-23T05:03:25;95227.63;;;7.70;82.37
78890;BME280;68279;48.964;14.502;2024-02-23T05:05:52;95233.44;;;7.50;84.62
78890;BME280;68279;48.964;14.502;2024-02-23T05:08:22;95233.31;;;7.55;84.74
78890;BME280;68279;48.964;14.502;2024-02-23T05:10:50;95246.94;;;7.53;85.05
78890;BME280;68279;48.964;14.502;2024-02-23T05:13:16;95252.72;;;7.55;85.01
78890;BME280;68279;48.964;14.502;2024-02-23T05:15:42;95259.03;;;7.37;86.59
78890;BME280;68279;48.964;14.502;2024-02-23T05:18:07;95276.38;;;7.34;86.75
78890;BME280;68279;48.964;14.502;2024-02-23T05:20:33;95291.22;;;7.13;88.75
78890;BME280;68279;48.964;14.502;2024-02-23T05:22:59;95293.63;;;7.01;88.51
78890;BME280;68279;48.964;14.502;2024-02-23T05:25:24;95288.31;;;7.01;88.53
78890;BME280;68279;48.964;14.502;2024-02-23T05:27:51;95295.22;;;6.88;89.21
78890;BME280;68279;48.964;14.502;2024-02-23T05:30:17;95292.69;;;6.83;89.47
78890;BME280;68279;48.964;14.502;2024-02-23T05:32:42;95303.81;;;6.71;90.15
78890;BME280;68279;48.964;14.502;2024-02-23T05:35:08;95301.44;;;6.70;90.17
78890;BME280;68279;48.964;14.502;2024-02-23T05:37:37;95307.28;;;6.58;90.83
78890;BME280;68279;48.964;14.502;2024-02-23T05:40:03;95299.50;;;6.48;89.80
78890;BME280;68279;48.964;14.502;2024-02-23T05:42:32;95312.97;;;6.51;87.79
78890;BME280;68279;48.964;14.502;2024-02-23T05:44:58;95322.03;;;6.64;83.12
78890;BME280;68279;48.964;14.502;2024-02-23T05:47:24;95315.25;;;6.58;82.22
78890;BME280;68279;48.964;14.502;2024-02-23T05:49:50;95312.19;;;6.65;78.57
78890;BME280;68279;48.964;14.502;2024-02-23T05:52:16;95315.16;;;6.63;78.34
78890;BME280;68279;48.964;14.502;2024-02-23T05:54:41;95309.06;;;6.63;76.95
78890;BME280;68279;48.964;14.502;2024-02-23T05:57:07;95308.06;;;6.59;76.40
78890;BME280;68279;48.964;14.502;2024-02-23T05:59:33;95308.09;;;6.45;77.23
78890;BME280;68279;48.964;14.502;2024-02-23T06:01:59;95322.91;;;6.32;77.87
78890;BME280;68279;48.964;14.502;2024-02-23T06:04:25;95324.28;;;6.43;76.79
78890;BME280;68279;48.964;14.502;2024-02-23T06:06:50;95320.44;;;6.36;76.82
78890;BME280;68279;48.964;14.502;2024-02-23T06:09:16;95319.38;;;6.23;77.29
78890;BME280;68279;48.964;14.502;2024-02-23T06:11:42;95319.34;;;6.09;78.47
78890;BME280;68279;48.964;14.502;2024-02-23T06:14:08;95312.97;;;6.24;76.02
78890;BME280;68279;48.964;14.502;2024-02-23T06:16:34;95318.44;;;6.00;78.10
78890;BME280;68279;48.964;14.502;2024-02-23T06:18:59;95316.63;;;5.82;79.85
78890;BME280;68279;48.964;14.502;2024-02-23T06:21:26;95325.72;;;5.94;79.07
78890;BME280;68279;48.964;14.502;2024-02-23T06:23:52;95323.19;;;6.03;78.98
78890;BME280;68279;48.964;14.502;2024-02-23T06:26:18;95311.78;;;6.03;79.74
78890;BME280;68279;48.964;14.502;2024-02-23T06:28:43;95307.94;;;5.95;79.55
78890;BME280;68279;48.964;14.502;2024-02-23T06:31:09;95310.09;;;5.93;79.96
78890;BME280;68279;48.964;14.502;2024-02-23T06:33:35;95296.69;;;5.84;79.88
78890;BME280;68279;48.964;14.502;2024-02-23T06:36:01;95300.16;;;5.99;79.75
78890;BME280;68279;48.964;14.502;2024-02-23T06:38:28;95298.22;;;6.04;79.89
78890;BME280;68279;48.964;14.502;2024-02-23T06:40:54;95301.16;;;6.03;79.73
78890;BME280;68279;48.964;14.502;2024-02-23T06:43:20;95305.78;;;5.97;80.65
78890;BME280;68279;48.964;14.502;2024-02-23T06:45:46;95309.59;;;5.91;80.56
78890;BME280;68279;48.964;14.502;2024-02-23T06:48:12;95317.81;;;5.89;80.75
78890;BME280;68279;48.964;14.502;2024-02-23T06:50:37;95318.09;;;5.88;79.44
78890;BME280;68279;48.964;14.502;2024-02-23T06:53:03;95325.00;;;5.89;77.50
78890;BME280;68279;48.964;14.502;2024-02-23T06:55:29;95332.91;;;6.08;73.37
78890;BME280;68279;48.964;14.502;2024-02-23T06:57:55;95337.66;;;6.11;74.66
78890;BME280;68279;48.964;14.502;2024-02-23T07:00:21;95339.69;;;6.00;74.46
78890;BME280;68279;48.964;14.502;2024-02-23T07:02:47;95335.88;;;6.06;72.75
78890;BME280;68279;48.964;14.502;2024-02-23T07:05:12;95334.41;;;6.14;71.68
78890;BME280;68279;48.964;14.502;2024-02-23T07:07:39;95348.16;;;6.16;69.96
78890;BME280;68279;48.964;14.502;2024-02-23T07:10:07;95352.13;;;6.18;70.29
78890;BME280;68279;48.964;14.502;2024-02-23T07:12:32;95348.84;;;6.08;71.35
78890;BME280;68279;48.964;14.502;2024-02-23T07:14:58;95339.69;;;6.00;73.03
78890;BME280;68279;48.964;14.502;2024-02-23T07:17:23;95335.25;;;6.09;72.78
78890;BME280;68279;48.964;14.502;2024-02-23T07:19:49;95351.13;;;6.14;73.93
78890;BME280;68279;48.964;14.502;2024-02-23T07:22:16;95358.22;;;6.19;73.29
78890;BME280;68279;48.964;14.502;2024-02-23T07:24:43;95350.41;;;6.09;74.62
78890;BME280;68279;48.964;14.502;2024-02-23T07:27:09;95357.38;;;6.05;76.26
78890;BME280;68279;48.964;14.502;2024-02-23T07:29:35;95368.00;;;6.05;76.49
78890;BME280;68279;48.964;14.502;2024-02-23T07:32:01;95369.88;;;6.04;76.65
78890;BME280;68279;48.964;14.502;2024-02-23T07:34:26;95378.31;;;6.06;76.03
78890;BME280;68279;48.964;14.502;2024-02-23T07:36:52;95397.50;;;6.03;76.60
78890;BME280;68279;48.964;14.502;2024-02-23T07:39:19;95397.31;;;6.13;76.48
78890;BME280;68279;48.964;14.502;2024-02-23T07:41:44;95405.78;;;6.15;75.41
78890;BME280;68279;48.964;14.502;2024-02-23T07:44:10;95407.75;;;6.10;76.31
78890;BME280;68279;48.964;14.502;2024-02-23T07:46:36;95396.03;;;6.11;75.37
78890;BME280;68279;48.964;14.502;2024-02-23T07:49:02;95393.28;;;6.16;76.27
78890;BME280;68279;48.964;14.502;2024-02-23T07:51:28;95383.50;;;6.30;73.55
78890;BME280;68279;48.964;14.502;2024-02-23T07:53:54;95391.44;;;6.30;75.10
78890;BME280;68279;48.964;14.502;2024-02-23T07:56:20;95400.09;;;6.36;74.46
78890;BME280;68279;48.964;14.502;2024-02-23T07:58:46;95407.50;;;6.39;74.09
78890;BME280;68279;48.964;14.502;2024-02-23T08:01:14;95405.94;;;6.51;72.13
78890;BME280;68279;48.964;14.502;2024-02-23T08:03:40;95406.72;;;6.66;70.49
78890;BME280;68279;48.964;14.502;2024-02-23T08:06:06;95405.53;;;6.58;71.39
78890;BME280;68279;48.964;14.502;2024-02-23T08:08:31;95402.59;;;6.46;73.04
78890;BME280;68279;48.964;14.502;2024-02-23T08:11:01;95409.78;;;6.45;72.50
78890;BME280;68279;48.964;14.502;2024-02-23T08:13:27;95411.34;;;6.46;71.58
78890;BME280;68279;48.964;14.502;2024-02-23T08:15:52;95405.06;;;6.56;69.78
78890;BME280;68279;48.964;14.502;2024-02-23T08:18:18;95416.53;;;6.51;70.04
78890;BME280;68279;48.964;14.502;2024-02-23T08:20:44;95415.56;;;6.47;72.46
78890;BME280;68279;48.964;14.502;2024-02-23T08:23:09;95419.22;;;6.65;70.79
78890;BME280;68279;48.964;14.502;2024-02-23T08:25:36;95411.03;;;6.62;70.50
78890;BME280;68279;48.964;14.502;2024-02-23T08:28:01;95411.06;;;6.75;69.42
78890;BME280;68279;48.964;14.502;2024-02-23T08:30:27;95414.22;;;6.77;69.21
78890;BME280;68279;48.964;14.502;2024-02-23T08:32:52;95423.06;;;6.73;69.48
78890;BME280;68279;48.964;14.502;2024-02-23T08:35:18;95434.00;;;6.85;70.68
78890;BME280;68279;48.964;14.502;2024-02-23T08:37:44;95429.28;;;6.82;69.47
78890;BME280;68279;48.964;14.502;2024-02-23T08:40:10;95419.22;;;6.93;69.70
78890;BME280;68279;48.964;14.502;2024-02-23T08:42:36;95426.22;;;6.89;69.51
78890;BME280;68279;48.964;14.502;2024-02-23T08:45:02;95422.94;;;7.05;69.10
78890;BME280;68279;48.964;14.502;2024-02-23T08:47:27;95420.59;;;7.18;68.71
78890;BME280;68279;48.964;14.502;2024-02-23T08:49:57;95423.72;;;7.33;66.00
78890;BME280;68279;48.964;14.502;2024-02-23T08:52:23;95430.56;;;7.48;65.12
78890;BME280;68279;48.964;14.502;2024-02-23T08:54:49;95432.19;;;7.35;63.28
78890;BME280;68279;48.964;14.502;2024-02-23T08:57:14;95431.03;;;7.28;65.01
78890;BME280;68279;48.964;14.502;2024-02-23T08:59:44;95432.69;;;7.24;65.25
78890;BME280;68279;48.964;14.502;2024-02-23T09:02:10;95433.59;;;7.19;65.05
78890;BME280;68279;48.964;14.502;2024-02-23T09:04:36;95424.63;;;7.15;63.58
78890;BME280;68279;48.964;14.502;2024-02-23T09:07:01;95420.91;;;7.16;63.82
78890;BME280;68279;48.964;14.502;2024-02-23T09:09:27;95420.78;;;7.21;62.81
78890;BME280;68279;48.964;14.502;2024-02-23T09:11:52;95424.78;;;7.32;62.51
78890;BME280;68279;48.964;14.502;2024-02-23T09:14:18;95418.22;;;7.30;63.47
78890;BME280;68279;48.964;14.502;2024-02-23T09:16:44;95426.09;;;7.21;62.88
78890;BME280;68279;48.964;14.502;2024-02-23T09:19:11;95422.56;;;7.26;63.66
78890;BME280;68279;48.964;14.502;2024-02-23T09:21:37;95411.53;;;7.19;63.50
78890;BME280;68279;48.964;14.502;2024-02-23T09:24:03;95405.44;;;7.04;64.47
78890;BME280;68279;48.964;14.502;2024-02-23T09:26:29;95399.25;;;7.09;65.09
78890;BME280;68279;48.964;14.502;2024-02-23T09:28:54;95382.22;;;7.10;64.55
78890;BME280;68279;48.964;14.502;2024-02-23T09:31:20;95384.25;;;7.27;64.65
78890;BME280;68279;48.964;14.502;2024-02-23T09:33:46;95391.94;;;7.51;64.39
78890;BME280;68279;48.964;14.502;2024-02-23T09:36:12;95381.09;;;7.61;61.42
78890;BME280;68279;48.964;14.502;2024-02-23T09:38:37;95374.63;;;7.76;62.12
78890;BME280;68279;48.964;14.502;2024-02-23T09:41:03;95372.28;;;7.97;61.90
78890;BME280;68279;48.964;14.502;2024-02-23T09:43:29;95365.34;;;8.40;61.95
78890;BME280;68279;48.964;14.502;2024-02-23T09:45:57;95351.03;;;8.67;61.16
78890;BME280;68279;48.964;14.502;2024-02-23T09:48:23;95368.72;;;8.32;60.47
78890;BME280;68279;48.964;14.502;2024-02-23T09:50:51;95376.59;;;8.37;61.95
78890;BME280;68279;48.964;14.502;2024-02-23T09:53:19;95380.94;;;8.64;61.95
78890;BME280;68279;48.964;14.502;2024-02-23T09:55:47;95372.69;;;8.83;60.29
78890;BME280;68279;48.964;14.502;2024-02-23T09:58:14;95373.97;;;8.86;59.96
78890;BME280;68279;48.964;14.502;2024-02-23T10:00:42;95384.97;;;8.93;60.54
78890;BME280;68279;48.964;14.502;2024-02-23T10:03:09;95390.34;;;9.10;58.50
78890;BME280;68279;48.964;14.502;2024-02-23T10:05:35;95396.44;;;9.02;56.88
78890;BME280;68279;48.964;14.502;2024-02-23T10:08:00;95397.03;;;8.90;57.23
78890;BME280;68279;48.964;14.502;2024-02-23T10:10:32;95399.56;;;8.33;59.53
78890;BME280;68279;48.964;14.502;2024-02-23T10:12:59;95408.13;;;8.75;61.29
78890;BME280;68279;48.964;14.502;2024-02-23T10:15:24;95416.34;;;8.96;58.73
78890;BME280;68279;48.964;14.502;2024-02-23T10:17:51;95417.00;;;9.19;60.25
78890;BME280;68279;48.964;14.502;2024-02-23T10:20:16;95421.91;;;9.25;62.29
78890;BME280;68279;48.964;14.502;2024-02-23T10:22:43;95433.56;;;9.47;59.52
78890;BME280;68279;48.964;14.502;2024-02-23T10:25:09;95440.56;;;9.17;60.56
78890;BME280;68279;48.964;14.502;2024-02-23T10:27:35;95442.63;;;9.20;59.89
78890;BME280;68279;48.964;14.502;2024-02-23T10:30:01;95447.13;;;9.11;59.02
78890;BME280;68279;48.964;14.502;2024-02-23T10:32:29;95442.22;;;8.95;62.05
78890;BME280;68279;48.964;14.502;2024-02-23T10:34:55;95452.94;;;8.42;61.72
78890;BME280;68279;48.964;14.502;2024-02-23T10:37:24;95455.94;;;8.80;61.53
78890;BME280;68279;48.964;14.502;2024-02-23T10:39:54;95456.09;;;8.75;59.17
78890;BME280;68279;48.964;14.502;2024-02-23T10:42:23;95462.31;;;8.39;58.58
78890;BME280;68279;48.964;14.502;2024-02-23T10:44:50;95456.19;;;8.16;59.97
78890;BME280;68279;48.964;14.502;2024-02-23T10:47:16;95463.22;;;8.35;58.81
78890;BME280;68279;48.964;14.502;2024-02-23T10:49:44;95471.28;;;8.43;59.09
78890;BME280;68279;48.964;14.502;2024-02-23T10:52:11;95464.00;;;8.13;59.60
78890;BME280;68279;48.964;14.502;2024-02-23T10:54:39;95465.06;;;8.12;59.62
78890;BME280;68279;48.964;14.502;2024-02-23T10:57:06;95470.38;;;8.12;59.79
78890;BME280;68279;48.964;14.502;2024-02-23T10:59:31;95474.78;;;7.94;58.70
78890;BME280;68279;48.964;14.502;2024-02-23T11:01:59;95473.13;;;8.20;60.01
78890;BME280;68279;48.964;14.502;2024-02-23T11:04:26;95470.66;;;8.24;59.05
78890;BME280;68279;48.964;14.502;2024-02-23T11:06:53;95471.91;;;8.27;60.26
78890;BME280;68279;48.964;14.502;2024-02-23T11:09:23;95467.63;;;8.17;62.58
78890;BME280;68279;48.964;14.502;2024-02-23T11:11:56;95465.78;;;7.81;63.48
78890;BME280;68279;48.964;14.502;2024-02-23T11:14:37;95462.34;;;7.67;65.81
78890;BME280;68279;48.964;14.502;2024-02-23T11:17:04;95459.63;;;7.58;66.91
78890;BME280;68279;48.964;14.502;2024-02-23T11:19:38;95458.47;;;7.23;66.29
78890;BME280;68279;48.964;14.502;2024-02-23T11:22:05;95461.75;;;7.20;66.46
78890;BME280;68279;48.964;14.502;2024-02-23T11:24:31;95467.63;;;7.31;69.65
78890;BME280;68279;48.964;14.502;2024-02-23T11:26:58;95457.34;;;7.65;70.17
78890;BME280;68279;48.964;14.502;2024-02-23T11:29:28;95459.97;;;7.79;69.55
78890;BME280;68279;48.964;14.502;2024-02-23T11:31:55;95454.50;;;7.98;69.05
78890;BME280;68279;48.964;14.502;2024-02-23T11:34:29;95445.41;;;7.99;67.02
78890;BME280;68279;48.964;14.502;2024-02-23T11:36:56;95445.19;;;7.73;68.88
78890;BME280;68279;48.964;14.502;2024-02-23T11:39:23;95442.91;;;7.80;68.01
78890;BME280;68279;48.964;14.502;2024-02-23T11:41:49;95451.09;;;8.06;69.03
78890;BME280;68279;48.964;14.502;2024-02-23T11:44:15;95452.66;;;8.07;70.68
78890;BME280;68279;48.964;14.502;2024-02-23T11:46:43;95443.16;;;7.92;69.16
78890;BME280;68279;48.964;14.502;2024-02-23T11:49:08;95440.81;;;7.91;68.99
78890;BME280;68279;48.964;14.502;2024-02-23T11:51:35;95443.59;;;8.08;69.50
78890;BME280;68279;48.964;14.502;2024-02-23T11:54:01;95434.50;;;8.32;66.62
78890;BME280;68279;48.964;14.502;2024-02-23T11:56:29;95436.50;;;8.26;66.69
78890;BME280;68279;48.964;14.502;2024-02-23T11:58:55;95432.31;;;8.34;68.38
78890;BME280;68279;48.964;14.502;2024-02-23T12:01:21;95436.81;;;8.47;69.25
78890;BME280;68279;48.964;14.502;2024-02-23T12:03:46;95434.59;;;8.40;69.44
78890;BME280;68279;48.964;14.502;2024-02-23T12:06:14;95441.91;;;8.35;67.64
78890;BME280;68279;48.964;14.502;2024-02-23T12:08:41;95449.94;;;8.21;68.17
78890;BME280;68279;48.964;14.502;2024-02-23T12:11:08;95439.84;;;8.09;66.39
78890;BME280;68279;48.964;14.502;2024-02-23T12:13:38;95441.94;;;8.21;67.81
78890;BME280;68279;48.964;14.502;2024-02-23T12:16:04;95436.13;;;8.19;70.05
78890;BME280;68279;48.964;14.502;2024-02-23T12:18:33;95432.16;;;8.08;66.79
78890;BME280;68279;48.964;14.502;2024-02-23T12:21:02;95425.44;;;8.33;67.89
78890;BME280;68279;48.964;14.502;2024-02-23T12:23:43;95422.66;;;8.15;71.86
78890;BME280;68279;48.964;14.502;2024-02-23T12:26:09;95410.19;;;8.24;70.83
78890;BME280;68279;48.964;14.502;2024-02-23T12:28:35;95417.69;;;8.22;71.99
78890;BME280;68279;48.964;14.502;2024-02-23T12:31:05;95415.09;;;8.09;71.23
78890;BME280;68279;48.964;14.502;2024-02-23T12:33:35;95427.31;;;8.10;67.71
78890;BME280;68279;48.964;14.502;2024-02-23T12:36:03;95418.91;;;7.94;73.16
78890;BME280;68279;48.964;14.502;2024-02-23T12:38:30;95415.94;;;8.18;72.68
78890;BME280;68279;48.964;14.502;2024-02-23T12:40:56;95415.81;;;8.45;74.27
78890;BME280;68279;48.964;14.502;2024-02-23T12:43:21;95404.38;;;8.85;70.70
78890;BME280;68279;48.964;14.502;2024-02-23T12:45:50;95403.81;;;9.05;66.35
78890;BME280;68279;48.964;14.502;2024-02-23T12:48:16;95408.25;;;9.27;68.14
78890;BME280;68279;48.964;14.502;2024-02-23T12:50:42;95408.94;;;8.84;69.29
78890;BME280;68279;48.964;14.502;2024-02-23T12:53:08;95422.75;;;8.33;70.52
78890;BME280;68279;48.964;14.502;2024-02-23T12:55:35;95411.44;;;8.49;67.74